This is the latest recevied weather packets stored in our database for station/object OM2RC-6. If no packets are shown the sender has not sent any weather packets the latest 10 day(s).
| Time | Temp. | Humidity | Pressure | Rain* | Wind** | Luminosity | Snow |
|---|---|---|---|---|---|---|---|
| 1778226354 | 16.67° C | 90% | 1018.3 hPa | - | - | - | - |
| 1778226053 | 19.44° C | 83% | 1018.4 hPa | - | - | - | - |
| 1778225751 | 20° C | 85% | 1018.3 hPa | - | - | - | - |
| 1778225450 | 17.78° C | 97% | 1018.4 hPa | - | - | - | - |
| 1778225149 | 16.67° C | 100% | 1018.4 hPa | - | - | - | - |
| 1778224848 | 17.22° C | 98% | 1018.5 hPa | - | - | - | - |
| 1778224547 | 16.67° C | 100% | 1018.5 hPa | - | - | - | - |
| 1778224246 | 16.11° C | 100% | 1018.5 hPa | - | - | - | - |
| 1778223943 | 17.22° C | 99% | 1018.4 hPa | - | - | - | - |
| 1778223642 | 17.22° C | 100% | 1018.5 hPa | - | - | - | - |
| 1778223341 | 15.56° C | 100% | 1018.5 hPa | - | - | - | - |
| 1778223040 | 15.56° C | 100% | 1018.5 hPa | - | - | - | - |
| 1778222739 | 15° C | 100% | 1018.5 hPa | - | - | - | - |
| 1778222438 | 15.56° C | 100% | 1018.4 hPa | - | - | - | - |
| 1778222137 | 15.56° C | 100% | 1018.5 hPa | - | - | - | - |
| 1778221835 | 15.56° C | 100% | 1018.5 hPa | - | - | - | - |
| 1778221534 | 15.56° C | 100% | 1018.5 hPa | - | - | - | - |
| 1778221233 | 13.89° C | 100% | 1018.5 hPa | - | - | - | - |
| 1778220932 | 15° C | 100% | 1018.6 hPa | - | - | - | - |
| 1778220631 | 14.44° C | 100% | 1018.5 hPa | - | - | - | - |
| 1778220329 | 13.89° C | 100% | 1018.5 hPa | - | - | - | - |
| 1778220027 | 13.33° C | 100% | 1018.4 hPa | - | - | - | - |
| 1778219725 | 13.33° C | 100% | 1018.4 hPa | - | - | - | - |
| 1778219424 | 12.22° C | 100% | 1018.3 hPa | - | - | - | - |
| 1778219123 | 12.22° C | 100% | 1018.5 hPa | - | - | - | - |
* Rain since midnight (hover to see other rain measurements)
** Current wind speed in m/s (hover to see current wind gust speed)